Latest Weather Observations for Sunshine Coast Airport

IDQ60901

Issued at 8:01 pm EST Friday 26 February 2021 (issued every 10 minutes, with the page automatically refreshed every 10 minutes)

About weather observations | Map of Brisbane area stations | Latest observations for Brisbane area | Other Formats
Station Details ID: 040861 Name: SUNSHINE COAST AIRPORT Lat: -26.60 Lon: 153.09 Height: 3.42 m
Data from the previous 72 hours. | See also: Recent months at Sunshine Coast Airport
Date/Time
EST
Temp
°C
App
Temp
°C
Dew
Point
°C
Rel
Hum
%
Delta-T
°C
Wind Press
QNH
hPa
Press
MSL
hPa
Rain since
9am
mm
Dir  Spd
km/h
Gust
km/h
Spd
kts
Gust
kts
26/08:00pm 25.4 26.5 21.3 78 2.7 NE 17 22 9 12 1011.1 1011.1 0.0
26/07:30pm 25.4 25.9 20.9 76 3.0 NE 19 22 10 12 1010.9 1010.9 0.0
26/07:00pm 25.5 25.9 21.0 76 3.0 NE 20 26 11 14 1010.4 1010.4 0.0
26/06:30pm 25.6 26.2 21.1 76 3.0 NE 19 24 10 13 1010.0 1010.0 0.0
26/06:00pm 25.9 27.0 21.3 76 3.0 NE 17 20 9 11 1009.9 1009.9 0.0
26/05:30pm 26.5 27.1 21.0 72 3.6 NE 19 20 10 11 1009.5 1009.5 0.0
26/05:00pm 27.1 28.2 21.2 70 3.9 ENE 17 20 9 11 1009.2 1009.2 0.0
26/04:30pm 27.6 28.3 21.2 68 4.3 ENE 19 22 10 12 1009.0 1009.0 0.0
26/04:00pm 27.8 28.6 21.3 67 4.3 ENE 19 24 10 13 1008.8 1008.8 0.0
26/03:30pm 28.1 28.7 21.1 65 4.6 ENE 19 22 10 12 1008.8 1008.8 0.0
26/03:00pm 28.4 29.0 21.4 66 4.7 ENE 20 24 11 13 1008.9 1008.9 0.0
26/02:30pm 28.4 29.4 22.2 69 4.2 ENE 20 26 11 14 1009.0 1009.0 0.0
26/02:00pm 28.6 29.8 22.1 68 4.4 ENE 19 22 10 12 1009.1 1009.1 0.0
26/01:30pm 28.4 29.2 21.4 66 4.7 ENE 19 24 10 13 1009.5 1009.5 0.0
26/01:00pm 28.8 30.0 22.5 68 4.3 NE 20 22 11 12 1009.7 1009.7 0.0
26/12:30pm 28.5 29.4 21.5 66 4.7 NE 19 24 10 13 1010.0 1010.0 0.0
26/12:00pm 28.6 29.8 21.4 65 4.8 ENE 17 22 9 12 1010.3 1010.3 0.0
26/11:30am 28.8 30.6 22.5 68 4.3 ENE 17 20 9 11 1010.7 1010.7 0.0
26/11:00am 28.2 29.9 21.7 68 4.4 ENE 15 20 8 11 1010.8 1010.8 0.0
26/10:30am 27.6 29.4 21.9 71 3.8 ENE 15 19 8 10 1011.1 1011.1 0.0
26/10:00am 28.1 30.7 22.6 72 3.7 ENE 13 17 7 9 1011.2 1011.2 0.0
26/09:30am 27.6 29.6 21.6 70 4.0 E 13 17 7 9 1011.3 1011.3 0.0
26/09:00am 27.3 29.5 21.1 69 4.1 ENE 11 15 6 8 1011.2 1011.2 0.0
26/08:30am 27.6 30.3 21.4 69 4.1 ENE 9 15 5 8 1011.2 1011.2 0.0
26/08:00am 26.6 30.0 21.6 74 3.3 W 6 9 3 5 1011.1 1011.1 0.0
26/07:30am 25.4 28.2 22.3 83 2.1 W 11 13 6 7 1011.0 1011.0 0.0
26/07:00am 23.5 27.0 22.1 92 0.9 W 7 9 4 5 1010.8 1010.8 0.0
26/06:30am 22.3 25.3 21.3 94 0.7 WSW 7 9 4 5 1010.4 1010.4 0.0
26/06:00am 21.7 24.6 20.7 94 0.6 SW 6 7 3 4 1009.9 1009.9 0.0
26/05:30am 21.8 24.8 20.8 94 0.6 WSW 6 9 3 5 1010.0 1010.0 0.0
26/05:00am 21.8 24.6 20.4 92 0.9 W 6 7 3 4 1009.8 1009.8 0.0
26/04:30am 22.1 24.8 20.7 92 0.9 SW 7 9 4 5 1009.8 1009.8 0.0
26/04:00am 22.6 25.7 21.1 91 1.0 SW 6 7 3 4 1009.9 1009.9 0.0
26/03:30am 22.7 25.9 21.2 91 1.0 W 6 7 3 4 1010.0 1010.0 0.0
26/03:00am 22.9 25.7 20.8 88 1.4 WNW 7 13 4 7 1010.0 1010.0 0.0
26/02:30am 24.4 25.6 20.7 80 2.4 NNE 15 19 8 10 1010.3 1010.3 0.0
26/02:00am 25.2 26.0 20.7 76 3.0 NE 17 24 9 13 1010.5 1010.5 0.0
26/01:30am 25.0 26.1 21.3 80 2.4 NE 17 22 9 12 1010.8 1010.8 0.0
26/01:00am 24.9 26.3 21.0 79 2.6 ENE 15 20 8 11 1011.2 1011.2 0.0
26/12:30am 25.1 26.1 21.0 78 2.7 ENE 17 20 9 11 1011.3 1011.3 0.0
26/12:00am 25.1 26.2 21.2 79 2.6 ENE 17 22 9 12 1011.6 1011.6 0.0
 
Date/Time
EST
Temp
°C
App
Temp
°C
Dew
Point
°C
Rel
Hum
%
Delta-T
°C
Wind Press
QNH
hPa
Press
MSL
hPa
Rain since
9am
mm
Dir  Spd
km/h
Gust
km/h
Spd
kts
Gust
kts
25/11:30pm 25.1 26.1 21.0 78 2.7 NE 17 20 9 11 1011.9 1011.9 0.0
25/11:00pm 25.3 26.0 21.2 78 2.7 ENE 19 24 10 13 1012.0 1012.0 0.0
25/10:30pm 25.4 26.3 20.9 76 3.0 ENE 17 22 9 12 1012.0 1012.0 0.0
25/10:00pm 25.4 26.4 21.1 77 2.8 ENE 17 22 9 12 1011.9 1011.9 0.0
25/09:30pm 25.5 26.2 21.2 77 2.8 ENE 19 22 10 12 1011.8 1011.8 0.0
25/09:00pm 25.5 26.1 21.0 76 3.0 ENE 19 24 10 13 1011.8 1011.8 0.0
25/08:30pm 25.8 27.0 21.5 77 2.9 ENE 17 22 9 12 1011.5 1011.5 0.0
25/08:00pm 25.6 26.4 21.3 77 2.8 ENE 19 22 10 12 1011.1 1011.1 0.0
25/07:30pm 25.6 26.5 21.5 78 2.7 ENE 19 24 10 13 1010.8 1010.8 0.0
25/07:00pm 25.6 26.4 21.3 77 2.8 ENE 19 24 10 13 1010.7 1010.7 0.0
25/06:30pm 25.8 27.0 21.5 77 2.9 ENE 17 22 9 12 1010.4 1010.4 0.0
25/06:00pm 26.0 27.1 21.2 75 3.2 NE 17 20 9 11 1010.4 1010.4 0.0
25/05:30pm 26.5 27.3 20.6 70 3.9 NE 17 20 9 11 1010.4 1010.4 0.0
25/05:00pm 26.8 27.4 21.1 71 3.8 NE 19 22 10 12 1009.9 1009.9 0.0
25/04:30pm 27.5 28.0 21.1 68 4.2 ENE 20 26 11 14 1009.6 1009.6 0.0
25/04:00pm 28.0 29.1 22.0 70 4.0 ENE 19 24 10 13 1009.7 1009.7 0.0
25/03:30pm 28.0 28.9 21.5 67 4.3 ENE 19 22 10 12 1009.8 1009.8 0.0
25/03:00pm 28.4 29.7 22.4 70 4.1 ENE 19 22 10 12 1010.1 1010.1 0.0
25/02:30pm 28.2 29.1 21.5 67 4.5 ENE 19 22 10 12 1010.3 1010.3 0.0
25/02:00pm 28.4 29.7 22.6 71 3.9 ENE 20 24 11 13 1010.7 1010.7 0.0
25/01:30pm 28.2 29.1 21.5 67 4.5 ENE 19 24 10 13 1011.1 1011.1 0.0
25/01:00pm 28.0 28.9 22.0 70 4.0 NE 20 24 11 13 1011.5 1011.5 0.0
25/12:30pm 28.4 29.6 22.2 69 4.2 NE 19 22 10 12 1011.8 1011.8 0.0
25/12:00pm 29.1 31.0 22.8 69 4.3 NE 17 20 9 11 1012.1 1012.1 0.0
25/11:30am 28.1 29.3 21.4 67 4.5 NE 17 22 9 12 1012.4 1012.4 0.0
25/11:00am 28.4 29.7 21.7 67 4.5 NE 17 20 9 11 1012.7 1012.7 0.0
25/10:30am 28.3 29.9 22.1 69 4.2 NE 17 22 9 12 1012.8 1012.8 0.0
25/10:00am 28.1 29.4 21.6 68 4.3 NE 17 22 9 12 1013.1 1013.1 0.0
25/09:30am 27.6 28.8 21.4 69 4.1 NE 17 20 9 11 1013.1 1013.1 0.0
25/09:00am 27.6 28.7 21.2 68 4.3 NE 17 20 9 11 1013.3 1013.3 0.0
25/08:30am 27.1 28.9 21.8 73 3.5 ENE 15 19 8 10 1013.1 1013.1 0.0
25/08:00am 27.2 28.7 21.2 69 4.0 ENE 15 19 8 10 1012.9 1012.9 0.0
25/07:30am 26.9 28.0 21.2 71 3.8 ENE 17 20 9 11 1012.6 1012.6 0.0
25/07:00am 26.5 27.3 21.3 73 3.4 E 19 24 10 13 1012.2 1012.2 0.0
25/06:30am 26.2 28.5 22.1 78 2.7 ENE 13 19 7 10 1012.0 1012.0 0.0
25/06:00am 24.8 25.7 20.9 79 2.6 ENE 17 22 9 12 1011.6 1011.6 0.0
25/05:30am 24.9 25.8 20.8 78 2.7 ENE 17 20 9 11 1011.4 1011.4 0.0
25/05:00am 24.8 25.7 20.9 79 2.6 ENE 17 22 9 12 1011.2 1011.2 0.0
25/04:30am 24.7 26.0 20.8 79 2.6 ENE 15 19 8 10 1011.4 1011.4 0.0
25/04:00am 24.8 25.2 20.7 78 2.7 ENE 19 22 10 12 1011.0 1011.0 0.0
25/03:30am 24.9 25.3 21.0 79 2.6 NE 20 26 11 14 1010.9 1010.9 0.0
25/03:00am 25.1 24.8 20.4 75 3.1 NE 22 28 12 15 1011.3 1011.3 0.0
25/02:30am 25.3 25.6 21.6 80 2.5 NE 22 28 12 15 1011.2 1011.2 0.0
25/02:00am 25.1 24.7 21.0 78 2.7 NE 24 30 13 16 1011.6 1011.6 0.0
25/01:30am 25.3 24.9 21.0 77 2.8 ENE 24 32 13 17 1011.8 1011.8 0.0
25/01:00am 25.3 25.2 21.4 79 2.6 NE 24 32 13 17 1012.3 1012.3 0.0
25/12:30am 25.4 25.3 21.5 79 2.6 NE 24 30 13 16 1012.5 1012.5 0.0
25/12:00am 25.5 25.3 21.2 77 2.8 NE 24 30 13 16 1013.0 1013.0 0.0
 
Date/Time
EST
Temp
°C
App
Temp
°C
Dew
Point
°C
Rel
Hum
%
Delta-T
°C
Wind Press
QNH
hPa
Press
MSL
hPa
Rain since
9am
mm
Dir  Spd
km/h
Gust
km/h
Spd
kts
Gust
kts
24/11:30pm 25.4 25.7 21.5 79 2.6 ENE 22 28 12 15 1013.3 1013.3 0.0
24/11:00pm 25.5 25.8 21.6 79 2.6 ENE 22 30 12 16 1013.5 1013.5 0.0
24/10:30pm 25.5 26.3 21.8 80 2.5 ENE 20 26 11 14 1013.5 1013.5 0.0
24/10:00pm 25.6 25.5 21.5 78 2.7 ENE 24 30 13 16 1013.4 1013.4 0.0
24/09:30pm 25.7 24.9 21.6 78 2.7 E 28 33 15 18 1013.2 1013.2 0.0
24/09:00pm 25.7 25.1 22.0 80 2.5 E 28 35 15 19 1013.1 1013.1 0.0
24/08:30pm 25.8 25.0 21.7 78 2.7 E 28 33 15 18 1012.7 1012.7 0.0
24/08:00pm 25.7 24.8 21.4 77 2.8 E 28 33 15 18 1012.4 1012.4 0.0
24/07:30pm 25.8 25.9 21.9 79 2.6 E 24 33 13 18 1012.5 1012.5 0.0
24/07:00pm 25.8 26.4 22.1 80 2.5 E 22 28 12 15 1012.2 1012.2 0.0
24/06:30pm 25.9 26.0 21.1 75 3.2 E 22 28 12 15 1012.1 1012.1 0.0
24/06:00pm 26.0 26.6 22.1 79 2.6 E 22 26 12 14 1011.8 1011.8 0.0
24/05:30pm 26.2 26.8 21.4 75 3.2 E 20 28 11 15 1011.5 1011.5 0.0
24/05:00pm 26.6 27.3 21.6 74 3.3 E 20 26 11 14 1011.3 1011.3 0.0
24/04:30pm 27.2 27.9 21.5 71 3.8 E 20 26 11 14 1011.1 1011.1 0.0
24/04:00pm 27.4 28.0 21.4 70 4.0 E 20 26 11 14 1011.2 1011.2 0.0
24/03:30pm 27.7 28.4 21.5 69 4.1 E 20 24 11 13 1011.4 1011.4 0.0
24/03:00pm 27.7 28.7 22.2 72 3.7 E 20 26 11 14 1011.5 1011.5 0.0
24/02:30pm 28.4 30.0 22.9 72 3.7 E 19 24 10 13 1012.1 1012.1 0.0
24/02:00pm 26.8 27.9 22.0 75 3.2 ESE 19 24 10 13 1012.3 1012.3 0.0
24/01:30pm 27.1 28.5 22.5 76 3.1 E 19 22 10 12 1012.6 1012.6 0.0
24/01:00pm 27.5 29.0 22.7 75 3.3 ESE 19 24 10 13 1012.9 1012.9 0.0
24/12:54pm 27.2 28.6 22.6 76 3.1 ESE 19 26 10 14 1012.9 1012.9 0.0
24/12:30pm 26.4 28.1 22.3 78 2.8 E 17 22 9 12 1013.2 1013.2 0.0
24/12:12pm 26.5 27.8 22.3 78 2.8 E 19 26 10 14 1013.1 1013.1 0.0
24/12:00pm 26.7 28.1 22.5 78 2.8 E 19 22 10 12 1013.1 1013.1 0.0
24/11:30am 27.1 28.4 22.3 75 3.2 E 19 22 10 12 1013.2 1013.2 0.0
24/11:00am 27.9 29.0 22.4 72 3.7 E 20 28 11 15 1013.4 1013.4 0.0
24/10:30am 27.8 28.5 22.3 72 3.7 E 22 30 12 16 1013.7 1013.7 0.0
24/10:00am 27.2 27.5 22.2 74 3.4 E 24 32 13 17 1013.7 1013.7 0.0
24/09:32am 27.9 28.6 22.2 71 3.8 E 22 28 12 15 1013.6 1013.6 0.0
24/09:30am 28.1 29.1 22.8 73 3.6 E 22 28 12 15 1013.6 1013.6 0.0
24/09:00am 25.2 28.0 22.3 84 1.9 SSE 11 15 6 8 1013.6 1013.6 1.4
24/08:43am 24.5 27.3 21.6 84 1.9 SSE 9 13 5 7 1013.4 1013.4 1.4
24/08:30am 24.5 26.8 21.4 83 2.0 S 11 15 6 8 1013.4 1013.4 1.4
24/08:00am 24.0 25.0 21.1 84 1.9 SSW 17 22 9 12 1013.4 1013.4 1.4
24/07:53am 23.7 24.5 20.6 83 2.0 SSW 17 22 9 12 1013.4 1013.4 1.4
24/07:30am 23.4 23.8 20.7 85 1.8 SSW 19 26 10 14 1012.9 1012.9 1.4
24/07:24am 23.1 23.9 20.6 86 1.6 SSW 17 20 9 11 1012.8 1012.8 1.4
24/07:00am 22.7 24.0 20.8 89 1.2 S 15 19 8 10 1012.5 1012.5 1.4
24/06:48am 22.6 23.8 20.7 89 1.2 S 15 17 8 9 1012.4 1012.4 1.4
24/06:30am 22.6 24.7 20.9 90 1.1 S 11 15 6 8 1012.4 1012.4 1.4
24/06:17am 22.4 24.8 20.9 91 1.0 SSW 9 13 5 7 1012.5 1012.5 1.4
24/06:16am 22.5 25.0 21.1 92 0.9 SSW 9 13 5 7 1012.5 1012.5 1.4
24/06:00am 21.8 24.0 20.4 92 0.9 SW 9 15 5 8 1012.3 1012.3 1.4
24/05:49am 21.7 23.2 20.5 93 0.8 SW 13 17 7 9 1012.2 1012.2 1.4
24/05:48am 21.7 23.6 20.5 93 0.8 SW 11 17 6 9 1012.3 1012.3 1.4
24/05:30am 21.4 23.4 20.0 92 0.9 WSW 9 11 5 6 1011.9 1011.9 1.4
24/05:00am 21.5 23.7 20.3 93 0.8 WSW 9 13 5 7 1011.6 1011.6 1.4
24/04:30am 21.2 23.6 20.0 93 0.8 W 7 11 4 6 1011.5 1011.5 1.4
24/04:27am 21.2 23.2 20.0 93 0.8 WSW 9 11 5 6 1011.5 1011.5 1.4
24/04:00am 21.1 23.9 19.7 92 0.9 WSW 4 7 2 4 1011.4 1011.4 1.4
24/03:30am 21.4 23.1 20.2 93 0.8 SW 11 15 6 8 1011.3 1011.3 1.4
24/03:00am 21.6 23.4 20.4 93 0.8 SW 11 13 6 7 1011.1 1011.1 1.4
24/02:30am 22.1 23.7 20.7 92 0.9 WSW 13 19 7 10 1011.1 1011.1 1.4
24/02:00am 22.3 24.5 20.4 89 1.2 S 9 13 5 7 1011.0 1011.0 1.4
24/01:30am 22.2 24.4 19.2 83 1.9 WSW 6 11 3 6 1011.4 1011.4 1.4
24/01:00am 24.9 25.4 18.4 67 4.1 E 13 17 7 9 1011.4 1011.4 1.4
24/12:30am 24.6 24.4 19.7 74 3.2 E 20 26 11 14 1011.4 1011.4 1.4
24/12:00am 24.6 24.0 20.5 78 2.7 E 24 32 13 17 1011.4 1011.4 1.4
 
Date/Time
EST
Temp
°C
App
Temp
°C
Dew
Point
°C
Rel
Hum
%
Delta-T
°C
Wind Press
QNH
hPa
Press
MSL
hPa
Rain since
9am
mm
Dir  Spd
km/h
Gust
km/h
Spd
kts
Gust
kts
23/11:30pm 24.4 22.5 20.1 77 2.8 E 30 39 16 21 1011.5 1011.5 1.4
23/11:00pm 24.2 22.8 20.5 80 2.4 E 28 37 15 20 1011.9 1011.9 1.4
23/10:30pm 23.6 22.2 19.7 79 2.5 E 26 35 14 19 1012.6 1012.6 1.4
23/10:00pm 23.0 21.6 20.5 86 1.6 ESE 28 43 15 23 1012.9 1012.9 1.4
23/09:48pm 22.8 20.4 20.3 86 1.6 SE 33 46 18 25 1013.1 1013.1 1.4
23/09:44pm 22.9 20.4 20.2 85 1.7 SE 33 46 18 25 1013.0 1013.0 1.4
23/09:36pm 22.9 20.2 21.2 90 1.1 SE 37 56 20 30 1012.9 1012.9 1.4
23/09:30pm 23.0 20.1 21.5 91 1.0 SE 39 56 21 30 1012.7 1012.7 1.4
23/09:27pm 23.1 21.0 21.7 92 0.9 SSE 35 54 19 29 1012.7 1012.7 1.2
23/09:24pm 23.4 21.8 21.8 91 1.1 SSE 33 52 18 28 1012.8 1012.8 0.8
23/09:23pm 23.4 21.9 21.8 91 1.1 SSE 32 46 17 25 1012.7 1012.7 0.8
23/09:09pm 25.4 25.8 22.5 84 1.9 ESE 24 33 13 18 1012.4 1012.4 0.6
23/09:00pm 25.8 27.6 22.5 82 2.2 SE 17 28 9 15 1012.5 1012.5 0.2
23/08:59pm 25.8 27.6 22.5 82 2.2 SE 17 26 9 14 1012.5 1012.5 0.2
23/08:30pm 26.5 28.9 22.3 78 2.8 ESE 13 20 7 11 1012.4 1012.4 0.0
23/08:08pm 26.4 28.4 22.3 78 2.8 E 15 17 8 9 1011.7 1011.7 0.0

Latest Capital City Observations: Canberra | Sydney | Melbourne | Brisbane | Adelaide | Perth | Hobart | Darwin

Other formats

Comma delimited format used in spreadsheet applications
http://www.bom.gov.au/fwo/IDQ60901/IDQ60901.94569.axf

JavaScript Object Notation format (JSON) in row-major order
http://www.bom.gov.au/fwo/IDQ60901/IDQ60901.94569.json

Data quality

Most of these data are generated automatically and are frequently updated. Quality checks on data are not normally performed. It is possible for incorrect values to appear. Refer to information at About Latest Weather Observations and please check the disclaimer before using these data.